createdAt,value
2022-08-16T00:03:57.853Z,44
2022-08-16T00:09:36.573Z,44
2022-08-16T00:15:17.894Z,58
2022-08-16T00:20:54.421Z,44
2022-08-16T00:26:51.324Z,34
2022-08-16T00:32:34.538Z,48
2022-08-16T00:38:44.384Z,42
2022-08-16T00:44:42.688Z,50
2022-08-16T00:50:19.354Z,63
2022-08-16T00:55:55.009Z,40
2022-08-16T01:01:36.121Z,32
2022-08-16T01:07:18.690Z,48
2022-08-16T01:12:55.410Z,48
2022-08-16T01:18:43.277Z,32
2022-08-16T01:24:56.834Z,58
2022-08-16T01:30:50.870Z,44
2022-08-16T01:36:27.476Z,48
2022-08-16T01:42:26.295Z,48
2022-08-16T01:48:20.903Z,47
2022-08-16T01:53:57.023Z,56
2022-08-16T01:59:35.123Z,44
2022-08-16T02:05:12.082Z,58
2022-08-16T02:10:47.385Z,38
2022-08-16T02:16:22.754Z,30
2022-08-16T02:22:37.709Z,54
2022-08-16T02:28:23.911Z,46
2022-08-16T02:34:08.236Z,51
2022-08-16T02:39:55.695Z,36
2022-08-16T02:45:30.515Z,30
2022-08-16T02:51:13.546Z,28
2022-08-16T02:56:48.758Z,54
2022-08-16T03:02:42.634Z,58
2022-08-16T03:08:54.196Z,40
2022-08-16T03:14:29.140Z,28
2022-08-16T03:20:05.614Z,42
2022-08-16T03:25:49.228Z,40
2022-08-16T03:31:23.978Z,28
2022-08-16T03:36:58.683Z,50
2022-08-16T03:43:22.292Z,52
2022-08-16T03:48:55.384Z,46
2022-08-16T03:54:31.109Z,32
2022-08-16T04:00:07.224Z,44
2022-08-16T04:05:47.579Z,44
2022-08-16T04:11:25.548Z,40
2022-08-16T04:17:04.528Z,26
2022-08-16T04:22:43.660Z,32
2022-08-16T04:29:25.475Z,34
2022-08-16T04:35:16.801Z,52
2022-08-16T04:40:54.878Z,40
2022-08-16T04:47:25.154Z,44
2022-08-16T04:53:19.810Z,50
2022-08-16T04:58:58.594Z,52
2022-08-16T05:04:33.310Z,26
2022-08-16T05:10:23.894Z,40
2022-08-16T05:15:59.006Z,22
2022-08-16T05:21:40.228Z,36
2022-08-16T05:27:14.977Z,46
2022-08-16T05:32:52.439Z,42
2022-08-16T05:38:40.789Z,42
2022-08-16T05:44:37.858Z,44
2022-08-16T05:50:35.074Z,50
2022-08-16T05:56:19.766Z,34
2022-08-16T06:01:56.482Z,30
2022-08-16T06:07:34.205Z,30
2022-08-16T06:13:10.163Z,34
2022-08-16T06:18:46.151Z,50
2022-08-16T06:24:56.770Z,42
2022-08-16T06:30:32.114Z,28
2022-08-16T06:36:09.372Z,28
2022-08-16T06:42:08.494Z,48
2022-08-16T06:47:57.658Z,36
2022-08-16T06:53:33.302Z,28
2022-08-16T06:59:11.225Z,50
2022-08-16T07:04:46.209Z,26
2022-08-16T07:10:27.853Z,34
2022-08-16T07:16:06.187Z,46
2022-08-16T07:22:00.875Z,40
2022-08-16T07:27:38.361Z,38
2022-08-16T07:33:55.614Z,50
2022-08-16T07:39:54.989Z,34
2022-08-16T07:45:34.504Z,46
2022-08-16T07:51:11.297Z,54
2022-08-16T07:56:46.256Z,24
2022-08-16T08:02:31.304Z,58
2022-08-16T08:08:59.757Z,57
2022-08-16T08:14:34.657Z,34
2022-08-16T08:20:12.084Z,50
2022-08-16T08:25:56.638Z,42
2022-08-16T08:31:42.519Z,30
2022-08-16T08:37:20.785Z,38
2022-08-16T08:43:19.978Z,48
2022-08-16T08:49:04.046Z,42
2022-08-16T08:54:43.624Z,32
2022-08-16T09:00:30.988Z,48
2022-08-16T09:06:07.860Z,26
2022-08-16T09:12:07.695Z,53
2022-08-16T09:18:37.568Z,46
2022-08-16T09:25:13.191Z,34
2022-08-16T09:30:52.983Z,55
2022-08-16T09:36:35.179Z,44
2022-08-16T09:43:01.086Z,46
2022-08-16T09:48:56.743Z,38
2022-08-16T09:54:33.741Z,38
2022-08-16T10:00:47.264Z,38
2022-08-16T10:06:34.294Z,52
2022-08-16T10:12:20.662Z,32
2022-08-16T10:19:08.902Z,30
2022-08-16T10:25:00.995Z,36
2022-08-16T10:30:41.509Z,46
2022-08-16T10:36:40.504Z,42
2022-08-16T10:42:37.389Z,48
2022-08-16T10:48:32.156Z,54
2022-08-16T10:54:32.631Z,38
2022-08-16T11:00:24.014Z,24
2022-08-16T11:06:29.892Z,34
2022-08-16T11:12:15.782Z,42
2022-08-16T11:19:15.836Z,76
2022-08-16T11:26:24.591Z,36
2022-08-16T11:32:00.696Z,40
2022-08-16T11:38:59.725Z,51
2022-08-16T11:44:58.323Z,44
2022-08-16T11:50:30.985Z,46
2022-08-16T11:56:06.962Z,28
2022-08-16T12:02:33.690Z,38
2022-08-16T12:08:09.444Z,34
2022-08-16T12:13:51.847Z,56
2022-08-16T12:19:36.552Z,47
2022-08-16T12:25:15.881Z,22
2022-08-16T12:30:53.595Z,38
2022-08-16T12:36:32.303Z,32
2022-08-16T12:42:36.896Z,40
2022-08-16T12:48:36.052Z,44
2022-08-16T12:54:12.520Z,20
2022-08-16T12:59:47.773Z,28
2022-08-16T13:05:23.984Z,26
2022-08-16T13:11:00.040Z,28
2022-08-16T13:22:20.893Z,24
2022-08-16T13:28:05.526Z,28
2022-08-16T13:33:41.472Z,32
2022-08-16T13:39:17.222Z,36
2022-08-16T13:45:17.287Z,39
2022-08-16T13:50:53.435Z,32
2022-08-16T13:56:41.158Z,30
2022-08-16T14:02:21.255Z,38
2022-08-16T14:07:58.644Z,44
2022-08-16T14:13:42.690Z,46
2022-08-16T14:19:26.445Z,50
2022-08-16T14:25:19.008Z,28
2022-08-16T14:30:54.088Z,42
2022-08-16T14:36:31.214Z,49
2022-08-16T14:42:27.747Z,49
2022-08-16T14:48:00.481Z,32
2022-08-16T14:53:45.681Z,30
2022-08-16T14:59:34.469Z,46
2022-08-16T15:05:24.044Z,50
2022-08-16T15:10:59.109Z,32
2022-08-16T15:16:46.107Z,38
2022-08-16T15:22:27.624Z,54
2022-08-16T15:28:31.365Z,48
2022-08-16T15:34:29.555Z,38
2022-08-16T15:40:05.702Z,48
2022-08-16T15:46:10.460Z,46
2022-08-16T15:51:47.334Z,36
2022-08-16T15:57:23.587Z,50
2022-08-16T16:03:02.390Z,36
2022-08-16T16:08:42.778Z,42
2022-08-16T16:14:19.675Z,36
2022-08-16T16:19:56.355Z,44
2022-08-16T16:25:33.962Z,32
2022-08-16T16:31:08.992Z,36
2022-08-16T16:36:54.862Z,32
2022-08-16T16:42:51.997Z,50
2022-08-16T16:48:36.860Z,36
2022-08-16T16:54:29.086Z,20
2022-08-16T17:00:56.260Z,38
2022-08-16T17:06:35.372Z,45
2022-08-16T17:12:56.621Z,56
2022-08-16T17:19:32.381Z,30
2022-08-16T17:25:09.425Z,34
2022-08-16T17:30:46.756Z,36
2022-08-16T17:36:55.032Z,28
2022-08-16T17:42:51.706Z,44
2022-08-16T17:48:25.298Z,46
2022-08-16T17:54:00.092Z,34
2022-08-16T17:59:42.233Z,30
2022-08-16T18:05:18.234Z,48
2022-08-16T18:10:54.001Z,50
2022-08-16T18:16:31.840Z,44
2022-08-16T18:22:06.999Z,30
2022-08-16T18:27:41.926Z,63
2022-08-16T18:33:16.680Z,42
2022-08-16T18:38:52.268Z,60
2022-08-16T18:44:48.847Z,46
2022-08-16T18:51:09.309Z,30
2022-08-16T18:56:59.118Z,52
2022-08-16T19:03:00.215Z,34
2022-08-16T19:08:35.082Z,36
2022-08-16T19:14:09.977Z,56
2022-08-16T19:19:44.876Z,60
2022-08-16T19:25:19.926Z,38
2022-08-16T19:30:54.617Z,34
2022-08-16T19:36:38.202Z,44
2022-08-16T19:42:34.842Z,52
2022-08-16T19:48:28.963Z,56
2022-08-16T19:54:04.012Z,44
2022-08-16T19:59:41.554Z,28
2022-08-16T20:05:17.551Z,45
2022-08-16T20:10:52.961Z,28
2022-08-16T20:16:27.857Z,28
2022-08-16T20:22:03.130Z,30
2022-08-16T20:27:39.809Z,20
2022-08-16T20:33:15.583Z,27
2022-08-16T20:38:50.398Z,18
2022-08-16T20:44:47.106Z,12
2022-08-16T20:50:20.637Z,10
2022-08-16T20:55:56.294Z,14
2022-08-16T21:01:51.608Z,4
2022-08-16T21:07:26.855Z,6
2022-08-16T21:13:03.043Z,13
2022-08-16T21:18:37.867Z,4
2022-08-16T21:24:13.866Z,11
2022-08-16T21:29:51.128Z,6
2022-08-16T21:35:27.428Z,10
2022-08-16T21:41:03.980Z,8
2022-08-16T21:46:38.796Z,6
2022-08-16T21:52:27.773Z,0
2022-08-16T21:58:02.677Z,4
2022-08-16T22:03:37.569Z,4
2022-08-16T22:09:12.487Z,6
2022-08-16T22:14:48.740Z,6
2022-08-16T22:20:23.666Z,6
2022-08-16T22:25:58.656Z,2
2022-08-16T22:31:33.903Z,2
2022-08-16T22:37:08.813Z,4
2022-08-16T22:43:05.407Z,6
2022-08-16T22:48:43.445Z,6
2022-08-16T22:54:49.974Z,0
2022-08-16T23:00:25.193Z,18
2022-08-16T23:06:00.219Z,8
2022-08-16T23:11:35.506Z,8
2022-08-16T23:17:10.436Z,4
2022-08-16T23:23:24.406Z,4
2022-08-16T23:29:01.332Z,11
2022-08-16T23:34:36.224Z,2
2022-08-16T23:40:12.074Z,4
2022-08-16T23:45:47.049Z,0
2022-08-16T23:51:21.807Z,8
2022-08-16T23:56:56.836Z,4
